Time;durP1;ratioP1;P1;durP2;ratioP2;P2;SDS_P1;SDS_P2;PMS_P1;PMS_P2;Temp;Humidity;BMP_temperature;BMP_pressure;BME280_temperature;BME280_humidity;BME280_pressure;Samples;Min_cycle;Max_cycle;Signal;HPM_P1;HPM_P2
2023/05/16 00:01:58;;;;;;;6.40;5.87;;;13.90;99.90;;;;;;5206004;28;20184;-44
2023/05/16 00:04:28;;;;;;;9.07;6.73;;;14.00;99.90;;;;;;5201692;28;20191;-45
2023/05/16 00:06:59;;;;;;;9.60;6.50;;;14.00;99.90;;;;;;5200107;28;20200;-46
2023/05/16 00:09:29;;;;;;;6.37;5.90;;;13.90;99.90;;;;;;5201823;28;20197;-45
2023/05/16 00:12:00;;;;;;;7.13;6.53;;;14.00;99.90;;;;;;5207795;28;20180;-45
2023/05/16 00:14:31;;;;;;;7.00;6.30;;;14.10;99.90;;;;;;5207100;28;20186;-46
2023/05/16 00:17:03;;;;;;;8.73;6.43;;;14.10;99.90;;;;;;5220032;28;20570;-46
2023/05/16 00:19:34;;;;;;;7.17;6.43;;;14.10;99.90;;;;;;5205040;28;20206;-45
2023/05/16 00:22:06;;;;;;;7.63;6.77;;;14.10;99.90;;;;;;5203491;28;20454;-45
2023/05/16 00:24:36;;;;;;;7.40;6.47;;;14.10;99.90;;;;;;5207280;28;20481;-46
2023/05/16 00:27:07;;;;;;;6.33;5.83;;;14.00;99.90;;;;;;5217974;28;21023;-49
2023/05/16 00:29:37;;;;;;;9.80;7.43;;;14.00;99.90;;;;;;5204653;28;20187;-46
2023/05/16 00:32:08;;;;;;;7.43;6.73;;;14.00;99.90;;;;;;5219947;28;20261;-46
2023/05/16 00:34:39;;;;;;;8.47;7.63;;;14.00;99.90;;;;;;5204720;28;20273;-45
2023/05/16 00:37:09;;;;;;;9.37;6.70;;;13.90;99.90;;;;;;5201187;28;20633;-45
2023/05/16 00:39:40;;;;;;;7.73;7.00;;;13.90;99.90;;;;;;5204595;28;20207;-46
2023/05/16 00:42:11;;;;;;;13.23;7.20;;;13.90;99.90;;;;;;5200451;28;20716;-45
2023/05/16 00:44:41;;;;;;;8.93;7.60;;;13.90;99.90;;;;;;5203034;28;20183;-46
2023/05/16 00:47:12;;;;;;;7.60;6.90;;;13.90;99.90;;;;;;5205774;28;20235;-44
2023/05/16 00:49:43;;;;;;;11.20;7.60;;;13.80;99.90;;;;;;5204406;28;20187;-45
2023/05/16 00:52:15;;;;;;;8.73;7.97;;;13.70;99.90;;;;;;5205118;28;20180;-46
2023/05/16 00:54:46;;;;;;;12.77;8.00;;;13.70;99.90;;;;;;5203679;28;20542;-45
2023/05/16 00:57:16;;;;;;;9.50;8.50;;;13.50;99.90;;;;;;5203577;28;20549;-46
2023/05/16 00:59:48;;;;;;;8.73;7.93;;;13.50;99.90;;;;;;5187083;28;20246;-46
2023/05/16 01:02:19;;;;;;;10.40;8.23;;;13.50;99.90;;;;;;5206561;28;20210;-44
2023/05/16 01:04:50;;;;;;;15.30;8.80;;;13.50;99.90;;;;;;5202305;28;20927;-45
2023/05/16 01:07:21;;;;;;;12.00;9.13;;;13.50;99.90;;;;;;5204753;28;20462;-47
2023/05/16 01:09:52;;;;;;;9.90;7.60;;;13.50;99.90;;;;;;5202481;28;20434;-45
2023/05/16 01:12:35;;;;;;;14.10;9.80;;;13.50;99.90;;;;;;5205917;28;20624;-45
2023/05/16 01:15:09;;;;;;;13.00;9.90;;;13.50;99.90;;;;;;5205026;28;20351;-46
2023/05/16 01:18:07;;;;;;;11.63;9.90;;;13.30;99.90;;;;;;5205680;28;20492;-44
2023/05/16 01:21:02;;;;;;;11.87;10.37;;;13.20;99.90;;;;;;5202994;28;20426;-46
2023/05/16 01:23:42;;;;;;;18.97;11.80;;;13.20;99.90;;;;;;5206643;28;20824;-46
2023/05/16 01:26:25;;;;;;;16.50;11.30;;;13.20;99.90;;;;;;5205401;28;20531;-45
2023/05/16 01:28:56;;;;;;;17.93;11.40;;;13.10;99.90;;;;;;5204772;28;20497;-45
2023/05/16 01:31:27;;;;;;;15.40;13.80;;;13.10;99.90;;;;;;5202118;28;20618;-45
2023/05/16 01:33:58;;;;;;;15.17;12.80;;;13.10;99.90;;;;;;5205556;28;20190;-45
2023/05/16 01:36:45;;;;;;;20.30;13.70;;;13.00;99.90;;;;;;5205580;28;21030;-45
2023/05/16 01:39:28;;;;;;;26.33;14.33;;;13.10;99.90;;;;;;5205291;28;20264;-46
2023/05/16 01:42:09;;;;;;;16.43;12.80;;;13.10;99.90;;;;;;5201440;28;20501;-44
2023/05/16 01:45:02;;;;;;;16.70;13.50;;;12.90;99.90;;;;;;5198580;28;20438;-48
2023/05/16 01:47:38;;;;;;;21.63;14.70;;;12.80;99.90;;;;;;5205387;28;20537;-45
2023/05/16 01:50:13;;;;;;;20.90;13.23;;;12.70;99.90;;;;;;5201582;28;20454;-45
2023/05/16 01:52:46;;;;;;;26.30;15.07;;;12.70;99.90;;;;;;5204009;28;20491;-45
2023/05/16 01:55:37;;;;;;;17.60;12.80;;;12.80;99.90;;;;;;5205120;28;20446;-46
2023/05/16 01:58:10;;;;;;;14.60;11.47;;;12.70;99.90;;;;;;5205830;28;21083;-45
2023/05/16 02:00:40;;;;;;;19.37;13.07;;;12.60;99.90;;;;;;5206493;28;20442;-45
2023/05/16 02:03:11;;;;;;;15.67;12.63;;;12.60;99.90;;;;;;5205180;28;20535;-45
2023/05/16 02:05:42;;;;;;;14.30;11.77;;;12.50;99.90;;;;;;5205497;28;20530;-45
2023/05/16 02:08:12;;;;;;;20.17;12.37;;;12.50;99.90;;;;;;5201099;28;20222;-45
2023/05/16 02:10:43;;;;;;;20.70;13.03;;;12.50;99.90;;;;;;5203873;28;20188;-45
2023/05/16 02:13:14;;;;;;;19.17;12.63;;;12.50;99.90;;;;;;5201012;28;20187;-45
2023/05/16 02:15:45;;;;;;;16.93;11.83;;;12.50;99.90;;;;;;5200929;28;20293;-44
2023/05/16 02:18:16;;;;;;;14.80;13.30;;;12.40;99.90;;;;;;5206864;28;20211;-44
2023/05/16 02:20:46;;;;;;;15.07;11.73;;;12.40;99.90;;;;;;5205493;28;20184;-44
2023/05/16 02:23:17;;;;;;;15.80;11.50;;;12.50;99.90;;;;;;5203552;28;20462;-45
2023/05/16 02:25:47;;;;;;;19.40;12.70;;;12.30;99.90;;;;;;5201227;28;20286;-45
2023/05/16 02:28:18;;;;;;;17.80;11.63;;;12.40;99.90;;;;;;5197786;28;20201;-46
2023/05/16 02:30:56;;;;;;;12.80;11.30;;;12.30;99.90;;;;;;5197455;28;20194;-46
2023/05/16 02:33:28;;;;;;;11.37;10.27;;;12.20;99.90;;;;;;5200844;28;20196;-45
2023/05/16 02:35:58;;;;;;;18.07;13.07;;;12.10;99.90;;;;;;5202805;28;20473;-46
2023/05/16 02:38:29;;;;;;;13.70;11.20;;;12.00;99.90;;;;;;5203986;28;20434;-45
2023/05/16 02:41:00;;;;;;;20.43;11.57;;;11.90;99.90;;;;;;5202345;28;20184;-45
2023/05/16 02:43:30;;;;;;;14.57;11.40;;;11.90;99.90;;;;;;5202481;28;20218;-47
2023/05/16 02:46:03;;;;;;;15.27;11.70;;;11.90;99.90;;;;;;5203119;28;20196;-47
2023/05/16 02:48:34;;;;;;;16.60;11.83;;;12.00;99.90;;;;;;5198774;28;20219;-45
2023/05/16 02:51:05;;;;;;;12.83;11.47;;;11.90;99.90;;;;;;5201243;28;20426;-44
2023/05/16 02:53:35;;;;;;;14.73;12.00;;;11.90;99.90;;;;;;5215110;28;20226;-45
2023/05/16 02:56:06;;;;;;;14.47;11.57;;;11.90;99.90;;;;;;5205831;28;20239;-45
2023/05/16 02:58:37;;;;;;;20.17;13.20;;;11.90;99.90;;;;;;5185957;28;20259;-45
2023/05/16 03:01:08;;;;;;;15.60;12.23;;;11.90;99.90;;;;;;5201611;28;20706;-45
2023/05/16 03:03:39;;;;;;;15.30;11.90;;;11.90;99.90;;;;;;5203820;28;20255;-45
2023/05/16 03:06:09;;;;;;;17.40;12.67;;;11.80;99.90;;;;;;5202781;28;20533;-46
2023/05/16 03:08:40;;;;;;;22.23;12.57;;;11.90;99.90;;;;;;5217413;28;20198;-45
2023/05/16 03:11:10;;;;;;;13.37;10.77;;;11.90;99.90;;;;;;5199732;28;20324;-44
2023/05/16 03:13:41;;;;;;;17.87;12.77;;;11.80;99.90;;;;;;5201103;28;20179;-44
2023/05/16 03:16:12;;;;;;;19.53;12.90;;;11.80;99.90;;;;;;5203977;28;20215;-45
2023/05/16 03:18:42;;;;;;;13.73;12.13;;;11.80;99.90;;;;;;5201552;28;20246;-45
2023/05/16 03:21:13;;;;;;;15.70;11.27;;;11.90;99.90;;;;;;5203096;28;20184;-45
2023/05/16 03:23:44;;;;;;;20.17;12.87;;;11.90;99.90;;;;;;5203224;28;20202;-45
2023/05/16 03:26:15;;;;;;;15.20;12.50;;;11.90;99.90;;;;;;5202609;28;20462;-45
2023/05/16 03:28:45;;;;;;;18.80;12.53;;;11.90;99.90;;;;;;5198910;28;20249;-45
2023/05/16 03:31:16;;;;;;;17.37;13.10;;;11.80;99.90;;;;;;5199854;28;20613;-46
2023/05/16 03:33:47;;;;;;;22.27;13.30;;;11.80;99.90;;;;;;5205950;28;20622;-44
2023/05/16 03:36:20;;;;;;;24.47;14.70;;;11.80;99.90;;;;;;5206995;28;20257;-44
2023/05/16 03:38:51;;;;;;;15.57;13.87;;;11.70;99.90;;;;;;5202370;28;20191;-46
2023/05/16 03:41:21;;;;;;;22.23;13.00;;;11.80;99.90;;;;;;5219556;28;20441;-45
2023/05/16 03:43:52;;;;;;;23.77;14.13;;;11.70;99.90;;;;;;5207402;28;20211;-45
2023/05/16 03:46:23;;;;;;;15.97;13.40;;;11.80;99.90;;;;;;5204907;28;20570;-44
2023/05/16 03:48:53;;;;;;;20.97;14.50;;;11.70;99.90;;;;;;5206928;28;20186;-44
2023/05/16 03:51:24;;;;;;;21.77;14.53;;;11.70;99.90;;;;;;5207091;28;20301;-44
2023/05/16 03:53:55;;;;;;;14.97;13.37;;;11.70;99.90;;;;;;5207343;28;20179;-45
2023/05/16 03:56:26;;;;;;;18.70;12.53;;;11.60;99.90;;;;;;5205673;28;20976;-44
2023/05/16 03:58:57;;;;;;;19.37;13.50;;;11.80;99.90;;;;;;5206364;28;20184;-45
2023/05/16 04:01:28;;;;;;;19.50;14.30;;;11.60;99.90;;;;;;5202008;28;20196;-44
2023/05/16 04:03:59;;;;;;;20.20;13.80;;;11.60;99.90;;;;;;5200435;28;21001;-44
2023/05/16 04:06:30;;;;;;;20.37;13.83;;;11.70;99.90;;;;;;5206712;28;20462;-44
2023/05/16 04:09:01;;;;;;;24.43;14.40;;;11.80;99.90;;;;;;5208560;28;20199;-46
2023/05/16 04:11:32;;;;;;;24.97;15.47;;;11.70;99.90;;;;;;5205131;28;20443;-46
2023/05/16 04:14:03;;;;;;;17.00;14.70;;;11.80;99.90;;;;;;5205580;28;20184;-44
2023/05/16 04:16:34;;;;;;;19.10;14.43;;;11.80;99.90;;;;;;5205949;28;20535;-46
2023/05/16 04:19:04;;;;;;;15.93;13.37;;;11.80;99.90;;;;;;5203558;28;20187;-44
2023/05/16 04:21:35;;;;;;;19.17;13.23;;;11.80;99.90;;;;;;5204617;28;20188;-45
2023/05/16 04:24:06;;;;;;;17.73;12.80;;;11.90;99.90;;;;;;5207605;28;20203;-47
2023/05/16 04:26:37;;;;;;;21.60;14.20;;;11.90;99.90;;;;;;5203672;28;20583;-46
2023/05/16 04:29:08;;;;;;;14.80;13.27;;;11.70;99.90;;;;;;5205424;28;20438;-46
2023/05/16 04:31:38;;;;;;;24.83;13.77;;;11.70;99.90;;;;;;5205321;28;20238;-46
2023/05/16 04:34:09;;;;;;;25.60;14.90;;;11.70;99.90;;;;;;5206440;28;20218;-46
2023/05/16 04:36:40;;;;;;;24.00;13.93;;;11.70;99.90;;;;;;5206200;28;20207;-45
2023/05/16 04:39:11;;;;;;;23.33;14.60;;;11.70;99.90;;;;;;5205156;28;20196;-44
2023/05/16 04:41:42;;;;;;;19.20;13.80;;;11.70;99.90;;;;;;5207021;28;20442;-46
2023/05/16 04:44:13;;;;;;;19.53;13.53;;;11.70;99.90;;;;;;5207151;28;20239;-46
2023/05/16 04:46:43;;;;;;;23.50;13.43;;;11.80;99.90;;;;;;5207212;28;20207;-45
2023/05/16 04:49:15;;;;;;;27.00;15.27;;;11.80;99.90;;;;;;5204320;28;20431;-45
2023/05/16 04:51:47;;;;;;;20.13;14.60;;;11.70;99.90;;;;;;5207316;28;20191;-45
2023/05/16 04:54:17;;;;;;;22.17;14.97;;;11.60;99.90;;;;;;5204015;28;20433;-46
2023/05/16 04:56:48;;;;;;;22.87;15.47;;;11.50;99.90;;;;;;5205947;28;20450;-45
2023/05/16 04:59:18;;;;;;;20.40;13.87;;;11.40;99.90;;;;;;5204953;28;20222;-45
2023/05/16 05:01:49;;;;;;;24.03;15.10;;;11.50;99.90;;;;;;5201453;28;20192;-46
2023/05/16 05:04:21;;;;;;;26.67;14.97;;;11.60;99.90;;;;;;5200546;28;20218;-46
2023/05/16 05:06:51;;;;;;;24.37;15.10;;;11.50;99.90;;;;;;5200167;28;20200;-45
2023/05/16 05:09:22;;;;;;;21.43;14.70;;;11.40;99.90;;;;;;5203903;28;20438;-45
2023/05/16 05:11:53;;;;;;;21.93;14.73;;;11.50;99.90;;;;;;5204490;28;20180;-45
2023/05/16 05:14:23;;;;;;;20.43;14.77;;;11.40;99.90;;;;;;5205719;28;20663;-46
2023/05/16 05:16:54;;;;;;;22.30;15.53;;;11.30;99.90;;;;;;5193026;28;20220;-45
2023/05/16 05:19:25;;;;;;;21.10;15.50;;;11.30;99.90;;;;;;5205063;28;20430;-45
2023/05/16 05:21:55;;;;;;;24.63;16.00;;;11.30;99.90;;;;;;5212553;28;20188;-46
2023/05/16 05:24:26;;;;;;;23.73;15.10;;;11.30;99.90;;;;;;5218798;28;20214;-46
2023/05/16 05:26:56;;;;;;;21.60;14.50;;;11.30;99.90;;;;;;5201523;28;20283;-44
2023/05/16 05:29:27;;;;;;;27.67;14.67;;;11.30;99.90;;;;;;5197015;28;20214;-45
2023/05/16 05:31:59;;;;;;;14.97;13.23;;;11.30;99.90;;;;;;5203173;28;20184;-45
2023/05/16 05:34:30;;;;;;;13.50;11.93;;;11.30;99.90;;;;;;5203688;28;20179;-44
2023/05/16 05:37:00;;;;;;;18.70;13.07;;;11.30;99.90;;;;;;5202952;28;20895;-45
2023/05/16 05:39:31;;;;;;;16.23;12.17;;;11.30;99.90;;;;;;5202342;28;20798;-46
2023/05/16 05:42:04;;;;;;;17.37;10.97;;;11.50;99.90;;;;;;5197664;28;20568;-46
2023/05/16 05:44:36;;;;;;;11.83;10.63;;;11.60;99.90;;;;;;5202961;28;20657;-46
2023/05/16 05:47:07;;;;;;;14.23;9.40;;;11.70;99.90;;;;;;5204398;28;20454;-46
2023/05/16 05:49:38;;;;;;;14.00;11.07;;;11.80;99.90;;;;;;5200161;28;20453;-46
2023/05/16 05:52:08;;;;;;;17.27;10.43;;;11.90;99.90;;;;;;5198344;28;20405;-45
2023/05/16 05:54:39;;;;;;;19.67;12.80;;;11.90;99.90;;;;;;5197822;28;20204;-46
2023/05/16 05:57:09;;;;;;;14.07;11.80;;;11.80;99.90;;;;;;5203389;28;20215;-45
2023/05/16 05:59:40;;;;;;;15.60;11.60;;;11.80;99.90;;;;;;5211253;28;20183;-44
2023/05/16 06:02:11;;;;;;;17.23;12.30;;;11.80;99.90;;;;;;5198538;28;20675;-45
2023/05/16 06:04:41;;;;;;;15.60;10.50;;;11.70;99.90;;;;;;5202228;28;20179;-47
2023/05/16 06:07:14;;;;;;;23.13;11.50;;;11.70;99.90;;;;;;5201331;28;20202;-45
2023/05/16 06:09:45;;;;;;;13.87;10.53;;;11.80;99.90;;;;;;5202443;28;20180;-45
2023/05/16 06:12:16;;;;;;;11.00;9.63;;;11.80;99.90;;;;;;5204190;28;20425;-46
2023/05/16 06:14:46;;;;;;;12.67;10.33;;;11.80;99.90;;;;;;5201331;28;20214;-46
2023/05/16 06:17:17;;;;;;;11.10;9.33;;;11.80;99.90;;;;;;5204239;28;20218;-46
2023/05/16 06:19:48;;;;;;;11.37;10.00;;;11.90;99.90;;;;;;5199963;28;20279;-45
2023/05/16 06:22:18;;;;;;;15.70;10.27;;;11.80;99.90;;;;;;5201372;28;20544;-46
2023/05/16 06:24:49;;;;;;;11.50;8.83;;;11.90;99.90;;;;;;5200915;28;20182;-45
2023/05/16 06:27:20;;;;;;;9.33;7.80;;;12.00;99.90;;;;;;5202509;28;20196;-45
2023/05/16 06:29:50;;;;;;;13.10;9.00;;;12.30;99.90;;;;;;5201769;28;20187;-45
2023/05/16 06:32:21;;;;;;;11.50;8.60;;;12.40;99.90;;;;;;5201291;28;20184;-48
2023/05/16 06:34:51;;;;;;;12.67;8.07;;;12.50;99.90;;;;;;5206472;28;20187;-46
2023/05/16 06:37:22;;;;;;;8.10;7.30;;;12.40;99.90;;;;;;5199133;28;20203;-45
2023/05/16 06:39:53;;;;;;;18.33;8.43;;;12.40;99.90;;;;;;5201786;28;20615;-45
2023/05/16 06:42:23;;;;;;;10.10;7.67;;;12.30;99.90;;;;;;5202318;28;20221;-46
2023/05/16 06:44:54;;;;;;;13.43;7.93;;;12.20;99.90;;;;;;5206119;28;20283;-46
2023/05/16 06:47:25;;;;;;;10.53;7.53;;;12.20;99.90;;;;;;5203521;28;20199;-47
2023/05/16 06:49:55;;;;;;;10.33;7.07;;;12.20;99.90;;;;;;5215916;28;20257;-47
2023/05/16 06:52:26;;;;;;;13.63;8.07;;;12.30;99.90;;;;;;5206011;28;20277;-46
2023/05/16 06:54:57;;;;;;;8.20;7.40;;;12.40;99.90;;;;;;5201770;28;20955;-48
2023/05/16 06:57:28;;;;;;;11.00;6.83;;;12.40;99.90;;;;;;5202744;28;20597;-45
2023/05/16 06:59:58;;;;;;;10.23;6.53;;;12.50;99.90;;;;;;5201387;28;20648;-45
2023/05/16 07:02:29;;;;;;;12.67;8.40;;;12.40;99.90;;;;;;5199898;28;20508;-47
2023/05/16 07:05:00;;;;;;;9.47;6.43;;;12.30;99.90;;;;;;5202637;28;20236;-46
2023/05/16 07:07:32;;;;;;;9.00;7.37;;;12.10;99.90;;;;;;5207483;28;20627;-45
2023/05/16 07:10:03;;;;;;;7.77;5.63;;;12.30;99.90;;;;;;5207968;28;20241;-50
2023/05/16 07:12:37;;;;;;;8.03;6.30;;;12.10;99.90;;;;;;5206669;28;20507;-46
2023/05/16 07:15:08;;;;;;;8.70;6.40;;;12.10;99.90;;;;;;5207912;28;20446;-45
2023/05/16 07:17:39;;;;;;;6.13;5.20;;;12.10;99.90;;;;;;5202165;28;20551;-45
2023/05/16 07:20:12;;;;;;;8.83;5.73;;;12.30;99.90;;;;;;5205443;28;20533;-44
2023/05/16 07:22:43;;;;;;;5.70;4.93;;;12.30;99.90;;;;;;5202636;28;20683;-45
2023/05/16 07:25:14;;;;;;;6.43;5.83;;;12.40;99.90;;;;;;5223607;28;20426;-45
2023/05/16 07:27:45;;;;;;;7.50;5.43;;;12.60;99.90;;;;;;5200100;28;20183;-47
2023/05/16 07:30:16;;;;;;;8.80;4.73;;;12.90;99.90;;;;;;5205473;28;20442;-45
2023/05/16 07:32:48;;;;;;;12.47;5.97;;;13.00;99.90;;;;;;5206354;28;20183;-46
2023/05/16 07:35:18;;;;;;;5.10;4.60;;;12.80;99.90;;;;;;5205369;28;20434;-45
2023/05/16 07:37:49;;;;;;;5.70;5.10;;;12.80;99.90;;;;;;5206175;28;20442;-48
2023/05/16 07:40:24;;;;;;;5.73;4.63;;;12.80;99.90;;;;;;5207354;28;20219;-47
2023/05/16 07:42:55;;;;;;;6.73;4.37;;;13.10;99.90;;;;;;5205937;28;20302;-45
2023/05/16 07:45:25;;;;;;;4.90;4.40;;;13.50;99.90;;;;;;5203786;28;20992;-46
2023/05/16 07:47:56;;;;;;;6.90;3.63;;;14.00;99.90;;;;;;5207104;28;20187;-45
2023/05/16 07:50:27;;;;;;;8.03;3.93;;;14.00;99.90;;;;;;5206960;28;20180;-45
2023/05/16 07:52:57;;;;;;;4.40;4.00;;;13.80;99.90;;;;;;5207697;28;20238;-45
2023/05/16 07:55:28;;;;;;;5.10;4.60;;;13.40;99.90;;;;;;5205146;28;20199;-47
2023/05/16 07:57:59;;;;;;;3.77;3.37;;;13.20;99.90;;;;;;5201495;28;20186;-45
2023/05/16 08:00:29;;;;;;;4.17;3.40;;;13.30;99.90;;;;;;5208516;28;20179;-47
2023/05/16 08:03:01;;;;;;;4.93;3.00;;;13.10;99.90;;;;;;5205591;28;20211;-45
2023/05/16 08:05:31;;;;;;;11.30;3.30;;;13.20;99.90;;;;;;5205862;28;20180;-47
2023/05/16 08:08:02;;;;;;;6.80;3.90;;;13.10;99.90;;;;;;5203215;28;20442;-46
2023/05/16 08:10:33;;;;;;;4.83;3.30;;;13.00;99.90;;;;;;5207384;28;20184;-46
2023/05/16 08:13:03;;;;;;;3.60;3.27;;;12.70;99.90;;;;;;5204370;28;20195;-47
2023/05/16 08:15:34;;;;;;;3.43;3.13;;;12.80;99.90;;;;;;5219503;28;20904;-45
2023/05/16 08:18:13;;;;;;;4.63;2.47;;;12.80;99.90;;;;;;5204623;28;20222;-45
2023/05/16 08:20:43;;;;;;;4.70;3.20;;;12.90;99.90;;;;;;5204034;28;20442;-46
2023/05/16 08:23:14;;;;;;;4.00;2.77;;;12.90;99.90;;;;;;5206029;28;20532;-45
2023/05/16 08:25:45;;;;;;;3.77;2.67;;;12.80;99.90;;;;;;5202844;28;20204;-45
2023/05/16 08:28:16;;;;;;;3.13;2.90;;;12.80;99.90;;;;;;5203743;28;20179;-46
2023/05/16 08:30:46;;;;;;;4.10;3.00;;;12.90;99.90;;;;;;5206308;28;20184;-45
2023/05/16 08:33:17;;;;;;;4.60;2.97;;;12.80;99.90;;;;;;5205566;28;20187;-45
2023/05/16 08:35:51;;;;;;;2.43;2.23;;;12.70;99.90;;;;;;5201318;28;20219;-45
2023/05/16 08:38:22;;;;;;;3.47;2.80;;;12.70;99.90;;;;;;5215333;28;20544;-47
2023/05/16 08:40:52;;;;;;;5.00;1.93;;;12.90;99.90;;;;;;5214072;28;20526;-45
2023/05/16 08:43:23;;;;;;;4.73;2.63;;;12.90;99.90;;;;;;5206489;28;20211;-46
2023/05/16 08:45:54;;;;;;;9.83;1.90;;;13.00;99.90;;;;;;5203989;28;20200;-47
2023/05/16 08:48:27;;;;;;;2.43;2.17;;;13.20;99.90;;;;;;5204136;28;20179;-46
2023/05/16 08:50:58;;;;;;;2.97;2.10;;;13.20;99.90;;;;;;5186801;28;20590;-45
2023/05/16 08:53:37;;;;;;;2.00;1.60;;;13.20;99.90;;;;;;5204200;28;20442;-46
2023/05/16 08:56:09;;;;;;;7.10;1.83;;;13.10;99.90;;;;;;5203084;28;20512;-46
2023/05/16 08:58:40;;;;;;;6.43;2.47;;;13.10;99.90;;;;;;5203748;28;20506;-46
2023/05/16 09:01:11;;;;;;;2.40;1.83;;;13.20;99.90;;;;;;5205201;28;20445;-45
2023/05/16 09:03:42;;;;;;;6.03;2.20;;;13.20;99.90;;;;;;5200401;28;20215;-45
2023/05/16 09:06:13;;;;;;;2.10;1.83;;;13.00;99.90;;;;;;5200050;28;20450;-45
2023/05/16 09:08:44;;;;;;;9.47;2.60;;;13.00;99.90;;;;;;5208477;28;20442;-46
2023/05/16 09:11:15;;;;;;;1.93;1.73;;;12.90;99.90;;;;;;5204422;28;20210;-45
2023/05/16 09:13:46;;;;;;;2.50;1.33;;;13.00;99.90;;;;;;5204926;28;20855;-46
2023/05/16 09:16:18;;;;;;;4.07;2.07;;;13.40;99.90;;;;;;5202996;28;20581;-45
2023/05/16 09:18:57;;;;;;;1.90;1.60;;;13.50;99.90;;;;;;5205458;28;20184;-47
2023/05/16 09:21:33;;;;;;;4.23;2.00;;;13.60;99.90;;;;;;5202910;28;20547;-47
2023/05/16 09:24:07;;;;;;;5.47;1.40;;;13.80;99.90;;;;;;5203687;28;20587;-45
2023/05/16 09:26:38;;;;;;;3.60;1.37;;;13.60;99.90;;;;;;5204002;28;20454;-45
2023/05/16 09:29:12;;;;;;;2.50;2.10;;;13.40;99.90;;;;;;5203811;28;20441;-46
2023/05/16 09:31:43;;;;;;;6.47;1.80;;;13.30;99.90;;;;;;5202721;28;20274;-48
2023/05/16 09:34:13;;;;;;;7.17;2.13;;;13.20;99.90;;;;;;5205154;28;20572;-47
2023/05/16 09:36:44;;;;;;;4.23;2.23;;;13.20;99.90;;;;;;5220755;28;20621;-45
2023/05/16 09:39:15;;;;;;;8.87;1.70;;;13.20;99.90;;;;;;5200558;28;20202;-46
2023/05/16 09:41:51;;;;;;;7.83;1.77;;;13.30;99.90;;;;;;5198730;28;20179;-46
2023/05/16 09:44:21;;;;;;;3.20;1.60;;;13.40;99.90;;;;;;5200468;28;20298;-46
2023/05/16 09:46:55;;;;;;;3.63;1.73;;;13.60;99.90;;;;;;5203757;28;20786;-47
2023/05/16 09:49:26;;;;;;;2.17;1.60;;;13.80;99.90;;;;;;5202185;28;20235;-46
2023/05/16 09:52:00;;;;;;;7.07;1.80;;;13.90;99.90;;;;;;5204993;28;21095;-46
2023/05/16 09:54:32;;;;;;;2.80;1.53;;;13.90;99.90;;;;;;5203132;28;20183;-46
2023/05/16 09:57:03;;;;;;;2.63;1.77;;;14.20;99.90;;;;;;5204773;28;21014;-46
2023/05/16 09:59:38;;;;;;;15.33;2.00;;;14.30;99.90;;;;;;5205281;28;20442;-47
2023/05/16 10:02:09;;;;;;;5.47;2.27;;;13.80;99.90;;;;;;5201372;28;20503;-46
2023/05/16 10:04:41;;;;;;;8.93;1.90;;;14.00;99.90;;;;;;5205145;28;20431;-47
2023/05/16 10:07:15;;;;;;;3.70;1.93;;;13.80;99.90;;;;;;5202119;28;20750;-46
2023/05/16 10:09:47;;;;;;;3.30;1.90;;;13.60;99.90;;;;;;5209441;28;20431;-46
2023/05/16 10:12:19;;;;;;;5.63;2.37;;;13.50;99.90;;;;;;5206202;28;21016;-45
2023/05/16 10:14:49;;;;;;;5.03;2.37;;;13.50;99.90;;;;;;5202443;28;20415;-48
2023/05/16 10:17:21;;;;;;;6.47;2.37;;;13.30;99.90;;;;;;5204668;28;20512;-46
2023/05/16 10:19:53;;;;;;;9.23;3.27;;;13.30;99.90;;;;;;5205013;28;20175;-45
2023/05/16 10:22:25;;;;;;;10.20;4.53;;;13.30;99.90;;;;;;5202548;28;20425;-46
2023/05/16 10:25:02;;;;;;;7.50;4.87;;;13.40;99.90;;;;;;5203688;28;20434;-48
2023/05/16 10:27:32;;;;;;;11.90;6.07;;;13.60;99.90;;;;;;5204945;28;20504;-45
2023/05/16 10:30:04;;;;;;;6.83;4.50;;;13.60;99.90;;;;;;5204380;28;20430;-46
2023/05/16 10:32:36;;;;;;;5.00;3.40;;;13.70;99.90;;;;;;5219353;28;20278;-46
2023/05/16 10:35:08;;;;;;;6.80;2.77;;;13.80;99.90;;;;;;5200709;28;20431;-47
2023/05/16 10:37:39;;;;;;;5.80;2.80;;;13.80;99.90;;;;;;5202048;28;20563;-45
2023/05/16 10:40:10;;;;;;;5.10;2.43;;;13.80;99.90;;;;;;5200598;28;20426;-46
2023/05/16 10:42:54;;;;;;;6.80;3.40;;;14.00;99.90;;;;;;5205447;28;20454;-46
2023/05/16 10:45:25;;;;;;;11.50;6.40;;;13.70;99.90;;;;;;5203419;28;20420;-44
2023/05/16 10:48:07;;;;;;;7.83;2.67;;;13.60;99.90;;;;;;5208644;28;20580;-45
2023/05/16 10:50:42;;;;;;;7.00;3.40;;;13.50;99.90;;;;;;5201653;28;20187;-44
2023/05/16 10:53:27;;;;;;;3.47;3.10;;;13.50;99.90;;;;;;5205584;28;20516;-46
2023/05/16 10:55:58;;;;;;;8.83;2.50;;;13.50;99.90;;;;;;5203690;28;20465;-47
2023/05/16 10:58:37;;;;;;;8.33;2.67;;;13.30;99.90;;;;;;5205465;28;20449;-45
2023/05/16 11:01:18;;;;;;;10.93;2.63;;;13.10;99.90;;;;;;5206563;28;20184;-45
2023/05/16 11:04:00;;;;;;;7.00;2.80;;;13.20;99.90;;;;;;5205344;28;20465;-48
2023/05/16 11:06:51;;;;;;;7.00;3.27;;;13.20;99.90;;;;;;5205083;28;20553;-46
2023/05/16 11:09:26;;;;;;;16.20;4.07;;;13.20;99.90;;;;;;5201234;28;20439;-46
2023/05/16 11:12:05;;;;;;;10.70;2.63;;;13.00;99.90;;;;;;5203081;28;20510;-46
2023/05/16 11:14:38;;;;;;;19.57;6.70;;;13.40;99.90;;;;;;5202227;28;20798;-47
2023/05/16 11:17:14;;;;;;;10.80;2.73;;;14.00;99.90;;;;;;5205325;28;20990;-45
2023/05/16 11:19:50;;;;;;;14.90;3.60;;;14.20;99.90;;;;;;5205276;28;20442;-47
2023/05/16 11:22:39;;;;;;;5.83;1.80;;;14.50;99.90;;;;;;5207946;28;20414;-46
2023/05/16 11:25:10;;;;;;;9.63;2.57;;;14.70;99.90;;;;;;5201256;28;20946;-46
2023/05/16 11:27:44;;;;;;;8.47;2.63;;;14.90;99.90;;;;;;5205702;28;20446;-45
2023/05/16 11:30:18;;;;;;;3.70;2.03;;;15.00;99.80;;;;;;5205079;28;20647;-46
2023/05/16 11:32:49;;;;;;;6.73;2.10;;;15.00;99.30;;;;;;5207995;28;20446;-45
2023/05/16 11:35:20;;;;;;;14.40;2.57;;;15.20;98.70;;;;;;5203778;28;20434;-46
2023/05/16 11:37:51;;;;;;;7.93;2.43;;;15.00;97.90;;;;;;5221578;28;20438;-46
2023/05/16 11:40:21;;;;;;;6.63;2.70;;;15.00;97.40;;;;;;5207400;28;20176;-46
2023/05/16 11:42:52;;;;;;;7.20;1.63;;;14.70;97.50;;;;;;5204516;28;20541;-46
2023/05/16 11:45:24;;;;;;;2.60;2.00;;;14.50;96.90;;;;;;5217472;28;20664;-45
2023/05/16 11:48:02;;;;;;;8.90;1.80;;;14.70;96.50;;;;;;5205892;28;20182;-46
2023/05/16 11:50:35;;;;;;;4.20;2.70;;;14.90;94.80;;;;;;5204940;28;20492;-45
2023/05/16 11:53:05;;;;;;;10.30;2.80;;;14.80;94.40;;;;;;5206743;28;20439;-46
2023/05/16 11:55:37;;;;;;;9.83;4.87;;;14.90;94.20;;;;;;5205606;28;20786;-45
2023/05/16 11:58:09;;;;;;;4.43;2.03;;;14.70;94.30;;;;;;5204480;28;20187;-46
2023/05/16 12:00:50;;;;;;;12.83;3.73;;;14.80;93.90;;;;;;5205232;28;20536;-45
2023/05/16 12:03:22;;;;;;;9.73;2.97;;;15.00;93.50;;;;;;5203837;28;20897;-47
2023/05/16 12:05:55;;;;;;;4.70;1.70;;;15.10;92.80;;;;;;5205856;28;20537;-46
2023/05/16 12:08:26;;;;;;;2.50;1.90;;;15.00;92.90;;;;;;5203976;28;20500;-46
2023/05/16 12:10:57;;;;;;;11.20;2.60;;;15.10;93.00;;;;;;5206403;28;20955;-45
2023/05/16 12:13:28;;;;;;;6.30;2.07;;;14.90;93.20;;;;;;5206474;28;20579;-46
2023/05/16 12:15:59;;;;;;;4.17;2.40;;;14.90;94.20;;;;;;5204361;28;20474;-46
2023/05/16 12:18:30;;;;;;;6.90;2.77;;;14.90;93.70;;;;;;5205374;28;20219;-47
2023/05/16 12:21:01;;;;;;;10.17;6.10;;;15.10;93.70;;;;;;5203699;28;20992;-46
2023/05/16 12:23:34;;;;;;;5.33;2.73;;;15.40;91.80;;;;;;5204149;28;20211;-47
2023/05/16 12:26:05;;;;;;;7.67;3.30;;;15.60;88.50;;;;;;5202002;28;20455;-46
2023/05/16 12:28:38;;;;;;;6.63;4.60;;;15.80;87.70;;;;;;5204834;28;20437;-47
2023/05/16 12:31:19;;;;;;;16.40;2.60;;;16.10;84.70;;;;;;5201299;28;20419;-45
2023/05/16 12:33:53;;;;;;;5.23;2.20;;;16.50;82.90;;;;;;5205209;28;20439;-48
2023/05/16 12:36:27;;;;;;;7.03;2.37;;;16.90;78.60;;;;;;5203769;28;20489;-45
2023/05/16 12:39:02;;;;;;;3.80;2.10;;;17.30;72.90;;;;;;5187866;28;20571;-48
2023/05/16 12:41:41;;;;;;;5.27;2.17;;;17.60;69.90;;;;;;5203127;28;20465;-46
2023/05/16 12:44:15;;;;;;;4.80;2.67;;;17.80;66.40;;;;;;5203224;28;20454;-47
2023/05/16 12:46:50;;;;;;;7.47;3.10;;;17.80;63.80;;;;;;5187732;28;20449;-46
2023/05/16 12:49:21;;;;;;;3.33;1.97;;;17.70;62.20;;;;;;5197486;28;20509;-46
2023/05/16 12:51:54;;;;;;;3.17;1.93;;;17.40;61.00;;;;;;5208394;28;20465;-46
2023/05/16 12:54:24;;;;;;;4.77;1.60;;;17.20;61.70;;;;;;5201658;28;20431;-46
2023/05/16 12:56:55;;;;;;;3.60;1.70;;;17.20;60.50;;;;;;5205422;28;20549;-45
2023/05/16 12:59:27;;;;;;;10.30;2.63;;;16.70;61.40;;;;;;5201356;28;20184;-47
2023/05/16 13:01:58;;;;;;;7.37;1.80;;;16.60;62.30;;;;;;5201739;28;20235;-46
2023/05/16 13:04:29;;;;;;;8.10;2.40;;;16.70;62.40;;;;;;5202687;28;20462;-46